createdAt,value
2022-08-17T00:00:49.452Z,50.09765625
2022-08-17T00:01:52.116Z,50.2216796875
2022-08-17T00:02:43.156Z,50.458984375
2022-08-17T00:03:41.867Z,50.4140625
2022-08-17T00:04:41.756Z,50.40234375
2022-08-17T00:05:41.766Z,50.52734375
2022-08-17T00:06:41.779Z,50.50390625
2022-08-17T00:07:42.293Z,50.0693359375
2022-08-17T00:08:44.901Z,49.90234375
2022-08-17T00:09:42.212Z,49.650390625
2022-08-17T00:10:41.912Z,49.6875
2022-08-17T00:11:41.896Z,49.73046875
2022-08-17T00:12:44.358Z,49.650390625
2022-08-17T00:13:42.121Z,49.7763671875
2022-08-17T00:14:41.883Z,49.9921875
2022-08-17T00:15:41.896Z,50.037109375
2022-08-17T00:16:53.464Z,49.9619140625
2022-08-17T00:17:41.897Z,50.0498046875
2022-08-17T00:18:57.642Z,50.1982421875
2022-08-17T00:19:44.866Z,50.291015625
2022-08-17T00:20:41.948Z,50.1875
2022-08-17T00:22:30.842Z,50.28125
2022-08-17T00:22:42.207Z,50.1875
2022-08-17T00:23:44.429Z,50.1875
2022-08-17T00:24:42.203Z,50.4033203125
2022-08-17T00:25:41.864Z,50.4404296875
2022-08-17T00:26:45.185Z,50.404296875
2022-08-17T00:27:42.221Z,50.3603515625
2022-08-17T00:28:41.934Z,50.2578125
2022-08-17T00:29:41.881Z,50.2451171875
2022-08-17T00:30:51.182Z,50.3818359375
2022-08-17T00:31:41.960Z,50.197265625
2022-08-17T00:33:14.104Z,50.2451171875
2022-08-17T00:33:41.952Z,50.17578125
2022-08-17T00:34:41.857Z,50.09375
2022-08-17T00:35:41.863Z,49.9794921875
2022-08-17T00:36:41.881Z,50.2177734375
2022-08-17T00:37:42.192Z,50.2978515625
2022-08-17T00:38:42.121Z,50.2626953125
2022-08-17T00:39:42.230Z,50.322265625
2022-08-17T00:40:44.961Z,50.388671875
2022-08-17T00:41:45.039Z,50.43359375
2022-08-17T00:42:42.343Z,50.490234375
2022-08-17T00:43:41.955Z,50.4892578125
2022-08-17T00:44:41.978Z,50.568359375
2022-08-17T00:45:41.966Z,50.6015625
2022-08-17T00:46:41.959Z,50.671875
2022-08-17T00:47:42.117Z,50.6806640625
2022-08-17T00:48:42.191Z,50.8486328125
2022-08-17T00:49:41.927Z,50.9892578125
2022-08-17T00:50:41.756Z,50.875
2022-08-17T00:51:41.905Z,50.8173828125
2022-08-17T00:52:44.855Z,50.8974609375
2022-08-17T00:53:42.143Z,51.044921875
2022-08-17T00:54:42.487Z,51.1259765625
2022-08-17T00:55:41.969Z,51.0576171875
2022-08-17T00:56:41.972Z,51.19140625
2022-08-17T00:57:41.941Z,51.201171875
2022-08-17T00:58:41.896Z,51.125
2022-08-17T00:59:41.851Z,51.0693359375
2022-08-17T01:00:41.940Z,50.9453125
2022-08-17T01:01:41.892Z,50.912109375
2022-08-17T01:02:42.901Z,50.8203125
2022-08-17T01:03:47.823Z,50.796875
2022-08-17T01:04:41.970Z,50.9208984375
2022-08-17T01:05:42.302Z,50.908203125
2022-08-17T01:06:41.894Z,51.0322265625
2022-08-17T01:07:41.947Z,51.06640625
2022-08-17T01:08:42.191Z,51.1552734375
2022-08-17T01:09:42.168Z,51.1787109375
2022-08-17T01:10:58.555Z,51.1552734375
2022-08-17T01:11:41.895Z,51.154296875
2022-08-17T01:12:41.820Z,51.380859375
2022-08-17T01:13:42.262Z,51.4150390625
2022-08-17T01:14:44.893Z,51.6748046875
2022-08-17T01:15:41.978Z,51.6416015625
2022-08-17T01:16:41.957Z,51.720703125
2022-08-17T01:17:41.930Z,51.90234375
2022-08-17T01:18:42.210Z,52.029296875
2022-08-17T01:19:42.144Z,52.0048828125
2022-08-17T01:20:47.857Z,51.869140625
2022-08-17T01:21:41.768Z,52.1083984375
2022-08-17T01:22:41.981Z,52.27734375
2022-08-17T01:23:42.122Z,52.298828125
2022-08-17T01:24:42.123Z,52.65234375
2022-08-17T01:25:44.868Z,52.5234375
2022-08-17T01:26:41.974Z,52.533203125
2022-08-17T01:27:41.956Z,52.4755859375
2022-08-17T01:28:53.952Z,52.5
2022-08-17T01:29:41.974Z,52.5234375
2022-08-17T01:30:56.685Z,52.693359375
2022-08-17T01:31:41.823Z,52.6240234375
2022-08-17T01:32:41.917Z,52.6552734375
2022-08-17T01:33:42.111Z,52.7119140625
2022-08-17T01:34:43.534Z,52.8017578125
2022-08-17T01:35:41.941Z,52.802734375
2022-08-17T01:36:41.767Z,52.8515625
2022-08-17T01:37:41.861Z,52.8740234375
2022-08-17T01:38:41.977Z,52.830078125
2022-08-17T01:39:42.210Z,52.7978515625
2022-08-17T01:40:41.815Z,52.8916015625
2022-08-17T01:41:45.018Z,52.9794921875
2022-08-17T01:42:42.015Z,53.0341796875
2022-08-17T01:43:41.951Z,52.712890625
2022-08-17T01:44:42.190Z,52.658203125
2022-08-17T01:45:41.968Z,52.6103515625
2022-08-17T01:46:41.824Z,52.62109375
2022-08-17T01:47:41.862Z,52.59765625
2022-08-17T01:48:41.859Z,52.6083984375
2022-08-17T01:49:42.139Z,52.6982421875
2022-08-17T01:50:41.978Z,52.5283203125
2022-08-17T01:51:41.928Z,52.51953125
2022-08-17T01:52:44.860Z,52.80859375
2022-08-17T01:53:41.928Z,52.677734375
2022-08-17T01:54:42.225Z,52.8056640625
2022-08-17T01:55:41.964Z,52.9658203125
2022-08-17T01:56:41.962Z,53.19140625
2022-08-17T01:57:41.965Z,53.1455078125
2022-08-17T01:58:41.751Z,53.49609375
2022-08-17T01:59:42.215Z,53.3115234375
2022-08-17T02:01:00.196Z,53.3544921875
2022-08-17T02:01:41.945Z,53.2802734375
2022-08-17T02:02:41.965Z,53.451171875
2022-08-17T02:03:59.209Z,53.2880859375
2022-08-17T02:04:42.291Z,53.6416015625
2022-08-17T02:05:41.945Z,53.490234375
2022-08-17T02:06:52.946Z,53.7080078125
2022-08-17T02:07:59.675Z,53.6943359375
2022-08-17T02:09:02.653Z,53.658203125
2022-08-17T02:09:42.263Z,53.7841796875
2022-08-17T02:10:46.650Z,53.8388671875
2022-08-17T02:11:41.925Z,53.873046875
2022-08-17T02:12:41.888Z,53.896484375
2022-08-17T02:13:41.918Z,54.1806640625
2022-08-17T02:14:47.827Z,54.2607421875
2022-08-17T02:15:41.827Z,54.1328125
2022-08-17T02:16:41.863Z,54.2890625
2022-08-17T02:17:41.965Z,54.52734375
2022-08-17T02:18:41.974Z,54.4794921875
2022-08-17T02:19:42.130Z,54.640625
2022-08-17T02:20:42.869Z,54.73046875
2022-08-17T02:21:41.762Z,54.5810546875
2022-08-17T02:22:41.972Z,54.63671875
2022-08-17T02:23:41.924Z,54.580078125
2022-08-17T02:24:58.160Z,54.6728515625
2022-08-17T02:25:44.864Z,54.5126953125
2022-08-17T02:26:41.891Z,54.634765625
2022-08-17T02:27:41.865Z,54.7041015625
2022-08-17T02:28:41.976Z,54.814453125
2022-08-17T02:29:42.140Z,54.9794921875
2022-08-17T02:31:01.977Z,55.2744140625
2022-08-17T02:31:41.894Z,55.3515625
2022-08-17T02:32:41.926Z,55.54296875
2022-08-17T02:33:43.669Z,55.703125
2022-08-17T02:34:42.272Z,55.6328125
2022-08-17T02:35:41.971Z,55.734375
2022-08-17T02:36:44.759Z,55.80078125
2022-08-17T02:37:41.859Z,55.8701171875
2022-08-17T02:38:41.873Z,56.0400390625
2022-08-17T02:39:42.158Z,56.234375
2022-08-17T02:40:42.118Z,56.380859375
2022-08-17T02:41:41.956Z,56.142578125
2022-08-17T02:42:41.745Z,56.107421875
2022-08-17T02:43:41.890Z,56.2333984375
2022-08-17T02:44:42.244Z,56.05078125
2022-08-17T02:45:41.912Z,56.0595703125
2022-08-17T02:46:41.886Z,56.11328125
2022-08-17T02:47:44.785Z,56.259765625
2022-08-17T02:48:41.852Z,56.416015625
2022-08-17T02:49:46.309Z,56.515625
2022-08-17T02:50:41.937Z,56.478515625
2022-08-17T02:51:41.756Z,56.58203125
2022-08-17T02:52:43.020Z,56.2265625
2022-08-17T02:53:41.776Z,55.8525390625
2022-08-17T02:54:42.487Z,55.6826171875
2022-08-17T02:55:42.127Z,55.6630859375
2022-08-17T02:56:41.935Z,55.53125
2022-08-17T02:57:41.894Z,55.3037109375
2022-08-17T02:58:44.848Z,55.2373046875
2022-08-17T02:59:46.727Z,55.2607421875
2022-08-17T03:00:41.865Z,55.1328125
2022-08-17T03:01:41.836Z,55.2587890625
2022-08-17T03:02:41.851Z,55.2802734375
2022-08-17T03:03:41.775Z,55.373046875
2022-08-17T03:04:42.228Z,55.4296875
2022-08-17T03:05:41.892Z,55.212890625
2022-08-17T03:06:41.885Z,55.0849609375
2022-08-17T03:07:41.834Z,54.8740234375
2022-08-17T03:08:41.889Z,54.759765625
2022-08-17T03:09:47.830Z,55
2022-08-17T03:10:41.951Z,55.115234375
2022-08-17T03:11:41.934Z,55.1611328125
2022-08-17T03:12:41.886Z,55.287109375
2022-08-17T03:13:41.938Z,55.1376953125
2022-08-17T03:14:42.303Z,55.146484375
2022-08-17T03:15:44.882Z,54.9775390625
2022-08-17T03:16:41.911Z,55.1455078125
2022-08-17T03:17:41.740Z,55.2001953125
2022-08-17T03:18:41.902Z,55.1884765625
2022-08-17T03:19:43.110Z,55.212890625
2022-08-17T03:20:41.927Z,55.076171875
2022-08-17T03:21:41.790Z,55.1337890625
2022-08-17T03:22:41.871Z,55.2001953125
2022-08-17T03:23:41.861Z,55.3447265625
2022-08-17T03:24:41.958Z,55.3818359375
2022-08-17T03:25:41.963Z,55.37109375
2022-08-17T03:26:44.754Z,55.349609375
2022-08-17T03:27:42.146Z,55.3818359375
2022-08-17T03:28:41.894Z,55.39453125
2022-08-17T03:29:42.110Z,55.4853515625
2022-08-17T03:30:41.838Z,55.529296875
2022-08-17T03:31:41.897Z,55.55078125
2022-08-17T03:32:41.965Z,55.4716796875
2022-08-17T03:33:41.856Z,55.517578125
2022-08-17T03:34:42.239Z,55.55078125
2022-08-17T03:35:41.985Z,55.5771484375
2022-08-17T03:36:41.971Z,55.7265625
2022-08-17T03:37:44.902Z,55.775390625
2022-08-17T03:38:41.942Z,55.58203125
2022-08-17T03:39:41.779Z,55.4140625
2022-08-17T03:40:57.288Z,55.5185546875
2022-08-17T03:41:41.977Z,55.564453125
2022-08-17T03:42:41.969Z,55.5400390625
2022-08-17T03:43:41.834Z,55.62890625
2022-08-17T03:44:42.177Z,55.6279296875
2022-08-17T03:45:41.931Z,55.4794921875
2022-08-17T03:46:41.848Z,55.4111328125
2022-08-17T03:47:41.894Z,55.3232421875
2022-08-17T03:48:44.779Z,55.27734375
2022-08-17T03:49:42.117Z,55.2900390625
2022-08-17T03:50:41.899Z,55.30078125
2022-08-17T03:51:41.882Z,55.1181640625
2022-08-17T03:52:41.923Z,55.0703125
2022-08-17T03:53:41.781Z,54.7421875
2022-08-17T03:54:42.121Z,54.8486328125
2022-08-17T03:55:41.881Z,54.74609375
2022-08-17T03:56:41.853Z,54.59765625
2022-08-17T03:57:41.844Z,54.5712890625
2022-08-17T03:58:41.903Z,54.248046875
2022-08-17T03:59:47.954Z,54.2158203125
2022-08-17T04:00:41.923Z,54.1728515625
2022-08-17T04:01:42.083Z,54.25
2022-08-17T04:02:41.776Z,54.2265625
2022-08-17T04:03:41.770Z,54.3134765625
2022-08-17T04:04:42.134Z,54.48046875
2022-08-17T04:05:41.903Z,54.44921875
2022-08-17T04:06:41.780Z,54.24609375
2022-08-17T04:07:41.878Z,54.146484375
2022-08-17T04:08:41.825Z,53.955078125
2022-08-17T04:09:42.254Z,54.0009765625
2022-08-17T04:10:45.227Z,54.2294921875
2022-08-17T04:11:41.857Z,54.3916015625
2022-08-17T04:12:41.787Z,54.2431640625
2022-08-17T04:13:41.868Z,54.4521484375
2022-08-17T04:14:52.677Z,54.6611328125
2022-08-17T04:15:41.752Z,55.5048828125
2022-08-17T04:16:41.863Z,55.4111328125
2022-08-17T04:17:41.927Z,55.515625
2022-08-17T04:18:41.770Z,55.662109375
2022-08-17T04:19:42.194Z,56.052734375
2022-08-17T04:20:41.945Z,56.0615234375
2022-08-17T04:21:41.745Z,56.048828125
2022-08-17T04:22:41.891Z,56.1494140625
2022-08-17T04:23:41.914Z,56.296875
2022-08-17T04:24:42.200Z,56.046875
2022-08-17T04:25:41.949Z,55.78125
2022-08-17T04:26:52.288Z,55.779296875
2022-08-17T04:27:41.935Z,55.5517578125
2022-08-17T04:28:41.750Z,55.279296875
2022-08-17T04:29:54.190Z,55.1904296875
2022-08-17T04:30:41.864Z,55.0908203125
2022-08-17T04:31:41.739Z,54.88671875
2022-08-17T04:33:04.699Z,54.8095703125
2022-08-17T04:33:41.962Z,54.619140625
2022-08-17T04:34:42.194Z,54.3359375
2022-08-17T04:35:41.938Z,54.1220703125
2022-08-17T04:36:41.764Z,53.9736328125
2022-08-17T04:37:44.779Z,53.8388671875
2022-08-17T04:38:41.858Z,53.521484375
2022-08-17T04:39:42.259Z,53.384765625
2022-08-17T04:40:41.975Z,53.236328125
2022-08-17T04:41:43.402Z,53.1689453125
2022-08-17T04:42:41.888Z,53.0185546875
2022-08-17T04:43:41.764Z,52.849609375
2022-08-17T04:44:42.184Z,52.72265625
2022-08-17T04:45:54.951Z,52.734375
2022-08-17T04:46:41.966Z,52.5419921875
2022-08-17T04:47:41.775Z,52.1044921875
2022-08-17T04:48:44.940Z,52.2294921875
2022-08-17T04:49:41.979Z,52.326171875
2022-08-17T04:50:41.858Z,52.2373046875
2022-08-17T04:51:45.473Z,52.3369140625
2022-08-17T04:52:43.371Z,52.357421875
2022-08-17T04:53:41.936Z,52.357421875
2022-08-17T04:54:42.192Z,52.4833984375
2022-08-17T04:55:41.852Z,52.169921875
2022-08-17T04:56:41.911Z,51.9775390625
2022-08-17T04:57:45.084Z,52.150390625
2022-08-17T04:58:41.940Z,52.2763671875
2022-08-17T04:59:47.782Z,52.75390625
2022-08-17T05:00:41.934Z,52.728515625
2022-08-17T05:01:41.901Z,52.6142578125
2022-08-17T05:02:49.842Z,52.8974609375
2022-08-17T05:03:41.898Z,53.0009765625
2022-08-17T05:04:42.213Z,53.0693359375
2022-08-17T05:05:41.854Z,52.9443359375
2022-08-17T05:06:41.778Z,52.900390625
2022-08-17T05:07:41.841Z,52.8984375
2022-08-17T05:08:41.745Z,52.8662109375
2022-08-17T05:09:42.273Z,52.775390625
2022-08-17T05:10:45.604Z,52.59375
2022-08-17T05:11:44.971Z,52.513671875
2022-08-17T05:12:41.881Z,52.466796875
2022-08-17T05:13:41.937Z,52.45703125
2022-08-17T05:14:42.207Z,52.435546875
2022-08-17T05:15:45.163Z,52.4609375
2022-08-17T05:16:41.897Z,52.3037109375
2022-08-17T05:17:41.887Z,52.2314453125
2022-08-17T05:18:41.977Z,51.9462890625
2022-08-17T05:19:42.189Z,52.087890625
2022-08-17T05:20:41.933Z,51.9658203125
2022-08-17T05:21:44.882Z,51.765625
2022-08-17T05:22:41.916Z,51.3828125
2022-08-17T05:23:43.318Z,50.9794921875
2022-08-17T05:24:43.551Z,50.6298828125
2022-08-17T05:25:41.910Z,50.3330078125
2022-08-17T05:26:41.898Z,50.1875
2022-08-17T05:27:41.850Z,49.85546875
2022-08-17T05:28:41.760Z,49.41796875
2022-08-17T05:29:42.316Z,48.8056640625
2022-08-17T05:30:41.838Z,47.8876953125
2022-08-17T05:31:41.859Z,47.6962890625
2022-08-17T05:32:44.779Z,47.482421875
2022-08-17T05:33:44.531Z,46.8740234375
2022-08-17T05:34:42.223Z,46.2705078125
2022-08-17T05:35:41.941Z,45.30078125
2022-08-17T05:36:44.346Z,44.5927734375
2022-08-17T05:37:41.867Z,43.654296875
2022-08-17T05:38:41.889Z,42.88671875
2022-08-17T05:39:42.217Z,42.08203125
2022-08-17T05:40:41.936Z,41.384765625
2022-08-17T05:41:41.851Z,41.1025390625
2022-08-17T05:42:41.865Z,40.6455078125
2022-08-17T05:43:44.871Z,40.4951171875
2022-08-17T05:44:42.122Z,40.548828125
2022-08-17T05:45:54.916Z,40.6611328125
2022-08-17T05:46:41.869Z,41.8486328125
2022-08-17T05:47:41.936Z,42.259765625
2022-08-17T05:48:41.863Z,42.3505859375
2022-08-17T05:49:42.113Z,42.3876953125
2022-08-17T05:50:41.879Z,41.9140625
2022-08-17T05:51:41.837Z,41.4931640625
2022-08-17T05:52:41.759Z,41.1201171875
2022-08-17T05:53:41.770Z,40.9169921875
2022-08-17T05:54:47.863Z,40.8017578125
2022-08-17T05:55:41.964Z,40.892578125
2022-08-17T05:56:41.921Z,41.2099609375
2022-08-17T05:57:43.566Z,41.3505859375
2022-08-17T05:58:41.932Z,41.46484375
2022-08-17T05:59:42.203Z,41.3583984375
2022-08-17T06:00:42.009Z,41.7138671875
2022-08-17T06:01:41.813Z,41.2470703125
2022-08-17T06:02:47.091Z,41.21484375
2022-08-17T06:03:41.960Z,41.4404296875
2022-08-17T06:04:42.123Z,41.578125
2022-08-17T06:05:44.893Z,41.646484375
2022-08-17T06:06:41.940Z,41.203125
2022-08-17T06:07:41.890Z,41.2607421875
2022-08-17T06:08:41.764Z,41.478515625
2022-08-17T06:09:42.224Z,41.521484375
2022-08-17T06:10:41.980Z,41.5126953125
2022-08-17T06:11:41.961Z,41.3310546875
2022-08-17T06:12:41.963Z,41.2724609375
2022-08-17T06:13:41.903Z,41.4052734375
2022-08-17T06:14:42.195Z,40.626953125
2022-08-17T06:15:41.946Z,40.5732421875
2022-08-17T06:16:41.751Z,40.013671875
2022-08-17T06:17:41.754Z,40.119140625
2022-08-17T06:18:41.858Z,39.8486328125
2022-08-17T06:19:42.162Z,39.1748046875
2022-08-17T06:20:41.842Z,38.7861328125
2022-08-17T06:21:41.901Z,38.7197265625
2022-08-17T06:22:41.878Z,38.2646484375
2022-08-17T06:23:41.879Z,37.953125
2022-08-17T06:24:42.313Z,38.2490234375
2022-08-17T06:25:41.861Z,38.712890625
2022-08-17T06:26:44.926Z,38.9072265625
2022-08-17T06:27:41.909Z,38.6923828125
2022-08-17T06:28:41.890Z,38.626953125
2022-08-17T06:29:42.127Z,38.736328125
2022-08-17T06:31:00.154Z,38.8125
2022-08-17T06:31:41.891Z,39.7041015625
2022-08-17T06:32:41.793Z,39.9775390625
2022-08-17T06:33:41.904Z,40.0244140625
2022-08-17T06:34:42.258Z,39.7880859375
2022-08-17T06:35:41.970Z,39.7763671875
2022-08-17T06:36:41.845Z,39.818359375
2022-08-17T06:37:41.745Z,39.9970703125
2022-08-17T06:38:41.900Z,39.1552734375
2022-08-17T06:39:42.175Z,39.431640625
2022-08-17T06:40:41.862Z,39.7861328125
2022-08-17T06:41:41.842Z,39.9794921875
2022-08-17T06:43:00.818Z,40.2119140625
2022-08-17T06:43:46.133Z,40.6259765625
2022-08-17T06:44:42.320Z,40.4521484375
2022-08-17T06:45:41.886Z,40.666015625
2022-08-17T06:46:41.944Z,41.169921875
2022-08-17T06:47:41.849Z,41.427734375
2022-08-17T06:48:41.904Z,42.021484375
2022-08-17T06:49:42.194Z,41.8173828125
2022-08-17T06:50:41.821Z,41.447265625
2022-08-17T06:51:41.891Z,40.8193359375
2022-08-17T06:52:46.576Z,40.537109375
2022-08-17T06:53:44.757Z,39.9970703125
2022-08-17T06:54:42.217Z,39.4619140625
2022-08-17T06:55:41.856Z,37.82421875
2022-08-17T06:56:53.280Z,37.3603515625
2022-08-17T06:57:41.888Z,35.814453125
2022-08-17T06:58:41.857Z,35.0029296875
2022-08-17T06:59:55.428Z,34.7646484375
2022-08-17T07:00:41.877Z,34.5361328125
2022-08-17T07:01:41.912Z,33.7607421875
2022-08-17T07:02:51.564Z,33.7724609375
2022-08-17T07:03:41.860Z,33.40234375
2022-08-17T07:04:47.809Z,33.423828125
2022-08-17T07:05:41.931Z,33.802734375
2022-08-17T07:06:41.873Z,33.8369140625
2022-08-17T07:07:41.898Z,34.048828125
2022-08-17T07:08:41.869Z,34.677734375
2022-08-17T07:09:42.206Z,35.228515625
2022-08-17T07:10:41.872Z,35.4580078125
2022-08-17T07:11:41.900Z,35.802734375
2022-08-17T07:12:41.927Z,36.064453125
2022-08-17T07:13:41.851Z,36.1552734375
2022-08-17T07:14:42.216Z,36.3857421875
2022-08-17T07:15:44.772Z,37.017578125
2022-08-17T07:16:41.939Z,37.875
2022-08-17T07:17:47.391Z,38.26171875
2022-08-17T07:18:41.908Z,39.1552734375
2022-08-17T07:19:42.239Z,39.3212890625
2022-08-17T07:20:41.923Z,39.974609375
2022-08-17T07:21:41.854Z,40.2724609375
2022-08-17T07:22:50.623Z,40.6142578125
2022-08-17T07:23:41.964Z,40.8232421875
2022-08-17T07:24:42.125Z,40.2880859375
2022-08-17T07:25:42.125Z,39.53125
2022-08-17T07:26:41.752Z,39.9912109375
2022-08-17T07:27:41.969Z,40.0810546875
2022-08-17T07:28:41.893Z,40.162109375
2022-08-17T07:29:42.119Z,40.109375
2022-08-17T07:30:47.398Z,40.052734375
2022-08-17T07:31:44.896Z,39.08984375
2022-08-17T07:32:41.976Z,38.521484375
2022-08-17T07:33:41.966Z,38.16796875
2022-08-17T07:34:42.147Z,37.8623046875
2022-08-17T07:35:44.069Z,37.259765625
2022-08-17T07:36:41.743Z,36.828125
2022-08-17T07:37:41.765Z,36.599609375
2022-08-17T07:38:41.925Z,36.60546875
2022-08-17T07:40:14.710Z,36.818359375
2022-08-17T07:40:42.178Z,36.1728515625
2022-08-17T07:41:57.678Z,35.279296875
2022-08-17T07:42:46.692Z,34.00390625
2022-08-17T07:43:41.928Z,34.0556640625
2022-08-17T07:44:42.196Z,33.6689453125
2022-08-17T07:45:41.955Z,33.2001953125
2022-08-17T07:46:41.970Z,32.70703125
2022-08-17T07:47:41.957Z,32.4072265625
2022-08-17T07:48:41.871Z,32.2109375
2022-08-17T07:49:42.314Z,31.857421875
2022-08-17T07:50:41.868Z,31.4052734375
2022-08-17T07:51:41.843Z,31.4638671875
2022-08-17T07:52:50.658Z,31
2022-08-17T07:53:44.890Z,30.646484375
2022-08-17T07:54:42.189Z,30.0869140625
2022-08-17T07:55:42.225Z,29.216796875
2022-08-17T07:56:41.935Z,28.7900390625
2022-08-17T07:57:41.748Z,28.640625
2022-08-17T07:58:41.738Z,28.6865234375
2022-08-17T07:59:43.231Z,28.4931640625
2022-08-17T08:00:41.875Z,28.193359375
2022-08-17T08:01:42.460Z,27.9736328125
2022-08-17T08:02:41.868Z,27.787109375
2022-08-17T08:03:41.761Z,27.9716796875
2022-08-17T08:05:00.750Z,28.1064453125
2022-08-17T08:05:50.037Z,28.8076171875
2022-08-17T08:06:41.851Z,30.029296875
2022-08-17T08:07:41.850Z,30.8154296875
2022-08-17T08:08:41.905Z,31.1025390625
2022-08-17T08:09:42.185Z,31.0927734375
2022-08-17T08:10:45.066Z,31.12890625
2022-08-17T08:11:44.357Z,31.1181640625
2022-08-17T08:12:42.017Z,31.28125
2022-08-17T08:13:41.937Z,31.755859375
2022-08-17T08:14:42.197Z,32.1220703125
2022-08-17T08:15:45.220Z,32.73046875
2022-08-17T08:16:41.915Z,32.66015625
2022-08-17T08:17:41.866Z,33.4892578125
2022-08-17T08:18:54.606Z,34.7177734375
2022-08-17T08:19:41.977Z,34.5693359375
2022-08-17T08:20:51.943Z,35.08984375
2022-08-17T08:21:41.893Z,35.1875
2022-08-17T08:22:41.873Z,36.001953125
2022-08-17T08:23:41.875Z,36.73046875
2022-08-17T08:24:42.142Z,37.3779296875
2022-08-17T08:25:42.198Z,38.103515625
2022-08-17T08:26:44.849Z,38.4306640625
2022-08-17T08:27:41.880Z,38.560546875
2022-08-17T08:28:41.847Z,39.044921875
2022-08-17T08:29:41.858Z,38.6357421875
2022-08-17T08:30:41.912Z,38.1826171875
2022-08-17T08:31:42.516Z,37.740234375
2022-08-17T08:32:41.770Z,37.375
2022-08-17T08:33:41.808Z,37.3876953125
2022-08-17T08:34:44.614Z,37.1728515625
2022-08-17T08:35:41.804Z,37.08203125
2022-08-17T08:37:12.598Z,36.8818359375
2022-08-17T08:37:44.932Z,37.34375
2022-08-17T08:38:41.982Z,37.0908203125
2022-08-17T08:39:42.302Z,37.478515625
2022-08-17T08:40:42.223Z,39.576171875
2022-08-17T08:41:42.080Z,37.71484375
2022-08-17T08:42:41.889Z,38.9208984375
2022-08-17T08:43:41.882Z,38.19140625
2022-08-17T08:45:00.350Z,36.283203125
2022-08-17T08:45:41.970Z,37.0556640625
2022-08-17T08:46:41.765Z,35.91796875
2022-08-17T08:47:41.899Z,36.3603515625
2022-08-17T08:48:53.141Z,37.49609375
2022-08-17T08:50:02.685Z,38.1142578125
2022-08-17T08:50:41.847Z,37.0029296875
2022-08-17T08:51:41.766Z,37.2568359375
2022-08-17T08:52:41.869Z,37.5146484375
2022-08-17T08:53:41.933Z,37.515625
2022-08-17T08:54:42.205Z,38.59375
2022-08-17T08:55:42.128Z,37.6142578125
2022-08-17T08:56:58.984Z,36.4892578125
2022-08-17T08:57:41.978Z,36.765625
2022-08-17T08:58:42.710Z,37.7431640625
2022-08-17T08:59:42.077Z,39.98046875
2022-08-17T09:00:41.911Z,43.380859375
2022-08-17T09:01:41.946Z,43.8251953125
2022-08-17T09:02:41.771Z,44.640625
2022-08-17T09:03:52.258Z,45.72265625
2022-08-17T09:05:10.776Z,42.3837890625
2022-08-17T09:05:41.973Z,41.3955078125
2022-08-17T09:06:41.876Z,38.9072265625
2022-08-17T09:07:41.895Z,38.857421875
2022-08-17T09:08:42.200Z,38.8017578125
2022-08-17T09:09:41.875Z,38.1611328125
2022-08-17T09:10:42.118Z,38.197265625
2022-08-17T09:12:02.543Z,38.4736328125
2022-08-17T09:12:41.845Z,38.447265625
2022-08-17T09:13:42.193Z,38.61328125
2022-08-17T09:14:47.174Z,37.046875
2022-08-17T09:15:44.799Z,37.0126953125
2022-08-17T09:16:41.964Z,36.7255859375
2022-08-17T09:17:41.952Z,36.3095703125
2022-08-17T09:19:03.455Z,36.2333984375
2022-08-17T09:19:41.847Z,36.79296875
2022-08-17T09:20:45.320Z,36.5810546875
2022-08-17T09:21:48.047Z,34.9873046875
2022-08-17T09:22:41.888Z,34.8720703125
2022-08-17T09:23:42.167Z,35.0634765625
2022-08-17T09:24:41.861Z,34.029296875
2022-08-17T09:25:42.200Z,35.4052734375
2022-08-17T09:26:46.335Z,35.08203125
2022-08-17T09:27:41.937Z,34.3916015625
2022-08-17T09:28:42.110Z,33.4111328125
2022-08-17T09:29:41.765Z,33.421875
2022-08-17T09:30:41.785Z,33.537109375
2022-08-17T09:31:48.809Z,36.142578125
2022-08-17T09:32:41.970Z,35.986328125
2022-08-17T09:33:41.981Z,35.697265625
2022-08-17T09:34:43.585Z,34.7861328125
2022-08-17T09:35:41.907Z,36.732421875
2022-08-17T09:36:41.945Z,35.9287109375
2022-08-17T09:37:41.905Z,34.78125
2022-08-17T09:38:42.193Z,33.923828125
2022-08-17T09:39:42.034Z,30.4453125
2022-08-17T09:40:42.256Z,29.6005859375
2022-08-17T09:41:49.270Z,28.7412109375
2022-08-17T09:42:44.767Z,27.958984375
2022-08-17T09:43:42.129Z,27.97265625
2022-08-17T09:44:41.914Z,28.4345703125
2022-08-17T09:45:41.897Z,30.06640625
2022-08-17T09:46:41.929Z,29.3857421875
2022-08-17T09:47:41.868Z,28.06640625
2022-08-17T09:48:42.125Z,27.3740234375
2022-08-17T09:49:41.830Z,26.9091796875
2022-08-17T09:51:03.249Z,26.8427734375
2022-08-17T09:51:41.893Z,25.8076171875
2022-08-17T09:52:41.896Z,25.2451171875
2022-08-17T09:53:47.832Z,24.796875
2022-08-17T09:54:41.839Z,23.8505859375
2022-08-17T09:55:42.206Z,23.37109375
2022-08-17T09:56:46.205Z,22.9140625
2022-08-17T09:57:41.887Z,23.041015625
2022-08-17T09:58:42.128Z,23.171875
2022-08-17T09:59:41.922Z,23.0126953125
2022-08-17T10:00:41.771Z,23.66796875
2022-08-17T10:01:41.933Z,23.8095703125
2022-08-17T10:02:41.938Z,23.8349609375
2022-08-17T10:03:42.198Z,23.787109375
2022-08-17T10:04:44.912Z,24.052734375
2022-08-17T10:05:41.958Z,23.16015625
2022-08-17T10:06:41.908Z,22.8798828125
2022-08-17T10:07:41.894Z,22.6494140625
2022-08-17T10:08:42.121Z,22.3232421875
2022-08-17T10:09:41.858Z,21.9384765625
2022-08-17T10:10:42.125Z,21.779296875
2022-08-17T10:11:44.833Z,21.14453125
2022-08-17T10:12:46.991Z,20.7958984375
2022-08-17T10:13:52.717Z,20.46484375
2022-08-17T10:14:43.772Z,20.6572265625
2022-08-17T10:15:44.813Z,19.935546875
2022-08-17T10:16:41.986Z,18.8583984375
2022-08-17T10:17:41.938Z,18.361328125
2022-08-17T10:18:42.311Z,18.267578125
2022-08-17T10:19:44.026Z,18.70703125
2022-08-17T10:20:41.770Z,19.0810546875
2022-08-17T10:21:41.826Z,19.703125
2022-08-17T10:22:41.798Z,19.7412109375
2022-08-17T10:23:42.133Z,19.3857421875
2022-08-17T10:25:13.513Z,19.7021484375
2022-08-17T10:25:54.657Z,19.904296875
2022-08-17T10:26:55.513Z,19.341796875
2022-08-17T10:27:41.854Z,19.4619140625
2022-08-17T10:28:41.825Z,19.2509765625
2022-08-17T10:29:48.454Z,18.8984375
2022-08-17T10:30:41.834Z,18.640625
2022-08-17T10:31:44.959Z,18.546875